Time,TemperatureF,DewpointF,PressureIn,WindDirection,WindDirectionDegrees,WindSpeedMPH,WindSpeedGustMPH,Humidity,HourlyPrecipIn,Conditions,Clouds,dailyrainin,SoftwareType,DateUTC
2013-12-13 00:00:00,54.7,52.4,29.97,SW,223,12.0,20.0,92,0.00,-DZ,,0.00,WeatherDisplay:10.37,2013-12-13 00:00:00,
2013-12-13 00:15:00,55.0,53.1,29.98,SW,216,9.0,18.0,93,0.00,BKN,,0.00,WeatherDisplay:10.37,2013-12-13 00:15:00,
2013-12-13 00:30:00,55.0,53.1,29.97,SSW,197,6.0,14.0,93,0.00,BKN,,0.00,WeatherDisplay:10.37,2013-12-13 00:30:00,
2013-12-13 00:46:00,55.0,53.1,29.97,SSW,195,7.0,13.0,93,0.00,BKN,,0.00,WeatherDisplay:10.37,2013-12-13 00:46:00,
2013-12-13 01:00:00,55.2,53.2,29.96,South,191,5.0,17.0,93,0.00,BKN,,0.00,WeatherDisplay:10.37,2013-12-13 01:00:00,
2013-12-13 01:16:00,55.1,53.2,29.95,SSE,161,2.0,14.0,93,0.00,OVC,,0.00,WeatherDisplay:10.37,2013-12-13 01:16:00,
2013-12-13 01:31:00,55.0,52.8,29.95,SE,140,6.0,11.0,92,0.00,OVC,,0.00,WeatherDisplay:10.37,2013-12-13 01:31:00,
2013-12-13 01:45:00,55.0,52.8,29.94,SE,139,3.0,13.0,92,0.00,OVC,,0.00,WeatherDisplay:10.37,2013-12-13 01:45:00,
2013-12-13 02:00:00,55.0,52.8,29.94,SE,136,9.0,15.0,92,0.00,OVC,,0.00,WeatherDisplay:10.37,2013-12-13 02:00:00,
2013-12-13 02:16:00,55.0,52.8,29.94,SE,139,5.0,11.0,92,0.00,OVC,,0.00,WeatherDisplay:10.37,2013-12-13 02:16:00,
2013-12-13 02:31:00,55.0,52.8,29.94,SSE,158,6.0,12.0,92,0.00,OVC,,0.00,WeatherDisplay:10.37,2013-12-13 02:31:00,
2013-12-13 02:45:00,55.0,52.8,29.93,SSE,154,6.0,12.0,92,0.00,OVC,,0.00,WeatherDisplay:10.37,2013-12-13 02:45:00,
2013-12-13 03:00:00,55.2,52.9,29.92,SSW,196,5.0,17.0,92,0.00,OVC,,0.00,WeatherDisplay:10.37,2013-12-13 03:00:00,
2013-12-13 03:16:00,55.4,53.1,29.92,SW,217,9.0,17.0,92,0.00,OVC,,0.00,WeatherDisplay:10.37,2013-12-13 03:16:00,
2013-12-13 03:31:00,55.6,53.3,29.91,SW,217,9.0,20.0,92,0.00,OVC,,0.00,WeatherDisplay:10.37,2013-12-13 03:31:00,
2013-12-13 03:45:00,55.6,53.3,29.91,SSW,208,12.0,17.0,92,0.00,OVC,,0.00,WeatherDisplay:10.37,2013-12-13 03:45:00,
2013-12-13 04:00:00,55.6,53.3,29.91,SSW,202,13.0,19.0,92,0.00,OVC,,0.00,WeatherDisplay:10.37,2013-12-13 04:00:00,
2013-12-13 04:15:00,55.6,53.3,29.91,SSW,198,8.0,18.0,92,0.00,OVC,,0.00,WeatherDisplay:10.37,2013-12-13 04:15:00,
2013-12-13 04:31:00,55.6,53.3,29.90,SW,219,5.0,18.0,92,0.00,OVC,,0.00,WeatherDisplay:10.37,2013-12-13 04:31:00,
2013-12-13 04:45:00,55.6,53.6,29.90,SSW,206,7.0,14.0,93,0.00,OVC,,0.00,WeatherDisplay:10.37,2013-12-13 04:45:00,
2013-12-13 05:00:00,55.6,53.6,29.90,SW,215,9.0,21.0,93,0.00,OVC,,0.00,WeatherDisplay:10.37,2013-12-13 05:00:00,
2013-12-13 05:15:00,55.5,53.5,29.89,SSW,210,10.0,21.0,93,0.02,-RA,,0.02,WeatherDisplay:10.37,2013-12-13 05:15:00,
2013-12-13 05:31:00,55.4,53.4,29.89,SW,219,9.0,18.0,93,0.02,-RA,,0.02,WeatherDisplay:10.37,2013-12-13 05:31:00,
2013-12-13 05:45:00,55.6,53.6,29.89,SW,219,8.0,20.0,93,0.02,-RA,,0.02,WeatherDisplay:10.37,2013-12-13 05:45:00,
2013-12-13 06:00:00,55.6,53.6,29.88,SW,223,10.0,20.0,93,0.02,-RA,,0.02,WeatherDisplay:10.37,2013-12-13 06:00:00,
2013-12-13 06:15:00,55.7,53.7,29.88,SW,234,9.0,18.0,93,0.00,OVC,,0.02,WeatherDisplay:10.37,2013-12-13 06:15:00,
2013-12-13 06:31:00,55.8,53.8,29.87,SW,232,12.0,18.0,93,0.00,OVC,,0.02,WeatherDisplay:10.37,2013-12-13 06:31:00,
2013-12-13 06:46:00,55.7,53.7,29.87,SW,235,12.0,21.0,93,0.00,OVC,,0.02,WeatherDisplay:10.37,2013-12-13 06:46:00,
2013-12-13 07:01:00,55.6,53.6,29.87,SW,224,10.0,23.0,93,0.00,OVC,,0.02,WeatherDisplay:10.37,2013-12-13 07:01:00,
2013-12-13 07:16:00,55.8,53.8,29.87,SW,219,10.0,20.0,93,0.00,OVC,,0.02,WeatherDisplay:10.37,2013-12-13 07:16:00,
2013-12-13 07:31:00,55.6,53.6,29.87,SW,224,13.0,18.0,93,0.00,OVC,,0.02,WeatherDisplay:10.37,2013-12-13 07:31:00,
2013-12-13 07:46:00,55.6,53.9,29.87,SW,231,10.0,23.0,94,0.00,OVC,,0.02,WeatherDisplay:10.37,2013-12-13 07:46:00,
2013-12-13 08:01:00,55.6,53.9,29.87,SW,226,13.0,19.0,94,0.00,OVC,,0.02,WeatherDisplay:10.37,2013-12-13 08:01:00,
2013-12-13 08:16:00,55.6,53.9,29.87,SW,234,15.0,22.0,94,0.00,-DZ,,0.02,WeatherDisplay:10.37,2013-12-13 08:16:00,
2013-12-13 08:31:00,55.6,53.9,29.87,SW,233,10.0,17.0,94,0.00,-DZ,,0.02,WeatherDisplay:10.37,2013-12-13 08:31:00,
2013-12-13 08:46:00,55.8,54.1,29.88,SW,233,10.0,18.0,94,0.00,-DZ,,0.02,WeatherDisplay:10.37,2013-12-13 08:46:00,
2013-12-13 09:01:00,55.8,53.8,29.88,SW,235,9.0,17.0,93,0.00,-DZ,,0.02,WeatherDisplay:10.37,2013-12-13 09:01:00,
2013-12-13 09:16:00,55.8,53.8,29.88,SW,233,9.0,18.0,93,0.00,OVC,,0.02,WeatherDisplay:10.37,2013-12-13 09:16:00,
2013-12-13 09:31:00,55.8,53.8,29.89,SW,231,6.0,17.0,93,0.00,OVC,,0.02,WeatherDisplay:10.37,2013-12-13 09:31:00,
2013-12-13 09:46:00,55.6,53.6,29.89,SW,230,8.0,15.0,93,0.02,RA,,0.04,WeatherDisplay:10.37,2013-12-13 09:46:00,
2013-12-13 10:01:00,55.6,53.6,29.89,WSW,249,13.0,20.0,93,0.02,OVC,,0.04,WeatherDisplay:10.37,2013-12-13 10:01:00,
2013-12-13 10:16:00,54.8,52.8,29.90,West,266,7.0,17.0,93,0.04,-RA,,0.06,WeatherDisplay:10.37,2013-12-13 10:16:00,
2013-12-13 10:31:00,54.0,52.1,29.91,West,260,7.0,14.0,93,0.04,-RA,,0.06,WeatherDisplay:10.37,2013-12-13 10:31:00,
2013-12-13 10:46:00,53.4,51.4,29.91,West,270,6.0,9.0,93,0.02,-RA,,0.06,WeatherDisplay:10.37,2013-12-13 10:46:00,
2013-12-13 11:01:00,52.9,50.9,29.91,West,273,8.0,14.0,93,0.02,-RA,,0.06,WeatherDisplay:10.37,2013-12-13 11:01:00,
2013-12-13 11:16:00,52.5,50.6,29.93,West,275,8.0,14.0,93,0.00,-RA,,0.06,WeatherDisplay:10.37,2013-12-13 11:16:00,
2013-12-13 11:31:00,52.3,50.1,29.93,West,262,6.0,12.0,92,0.02,-RA,,0.08,WeatherDisplay:10.37,2013-12-13 11:31:00,
2013-12-13 11:46:00,52.0,49.7,29.92,West,271,9.0,14.0,92,0.02,-RA,,0.08,WeatherDisplay:10.37,2013-12-13 11:46:00,
2013-12-13 12:01:00,52.2,49.6,29.92,West,281,10.0,18.0,91,0.02,-RA,,0.08,WeatherDisplay:10.37,2013-12-13 12:01:00,
2013-12-13 12:16:00,51.8,48.7,29.93,West,279,9.0,17.0,89,0.02,-RA,,0.08,WeatherDisplay:10.37,2013-12-13 12:16:00,
2013-12-13 12:31:00,51.3,47.2,29.94,West,274,8.0,17.0,86,0.00,-RA,,0.08,WeatherDisplay:10.37,2013-12-13 12:31:00,
2013-12-13 12:46:00,51.5,47.5,29.93,West,274,6.0,14.0,86,0.00,-RA,,0.08,WeatherDisplay:10.37,2013-12-13 12:46:00,
2013-12-13 13:01:00,51.6,47.6,29.93,West,278,6.0,12.0,86,0.00,-RA,,0.08,WeatherDisplay:10.37,2013-12-13 13:01:00,
2013-12-13 13:16:00,51.9,47.5,29.94,West,280,7.0,12.0,85,0.00,-RA,,0.08,WeatherDisplay:10.37,2013-12-13 13:16:00,
2013-12-13 13:31:00,52.3,48.0,29.94,West,278,8.0,13.0,85,0.00,-RA,,0.08,WeatherDisplay:10.37,2013-12-13 13:31:00,
2013-12-13 13:46:00,52.4,48.0,29.95,West,279,6.0,12.0,85,0.00,-RA,,0.08,WeatherDisplay:10.37,2013-12-13 13:46:00,
2013-12-13 14:01:00,52.3,48.0,29.95,West,281,5.0,13.0,85,0.00,-RA,,0.08,WeatherDisplay:10.37,2013-12-13 14:01:00,
2013-12-13 14:16:00,52.3,48.0,29.96,West,271,6.0,13.0,85,0.00,SCT,,0.08,WeatherDisplay:10.37,2013-12-13 14:16:00,
2013-12-13 14:31:00,52.3,48.0,29.96,West,276,6.0,8.0,85,0.00,SCT,,0.08,WeatherDisplay:10.37,2013-12-13 14:31:00,
2013-12-13 14:46:00,52.2,47.8,29.96,West,272,9.0,15.0,85,0.00,SCT,,0.08,WeatherDisplay:10.37,2013-12-13 14:46:00,
2013-12-13 15:01:00,52.2,47.2,29.96,West,280,7.0,14.0,83,0.00,SCT,,0.08,WeatherDisplay:10.37,2013-12-13 15:01:00,
2013-12-13 15:16:00,52.3,47.3,29.96,West,273,6.0,16.0,83,0.00,BKN,,0.08,WeatherDisplay:10.37,2013-12-13 15:16:00,
2013-12-13 15:31:00,52.5,47.2,29.97,West,277,9.0,23.0,82,0.00,BKN,,0.08,WeatherDisplay:10.37,2013-12-13 15:31:00,
2013-12-13 15:46:00,52.5,46.9,29.98,WNW,283,10.0,19.0,81,0.00,BKN,,0.08,WeatherDisplay:10.37,2013-12-13 15:46:00,
2013-12-13 16:01:00,52.3,46.7,29.98,West,281,13.0,18.0,81,0.00,BKN,,0.08,WeatherDisplay:10.37,2013-12-13 16:01:00,
2013-12-13 16:16:00,52.0,46.3,29.98,WNW,283,10.0,15.0,81,0.00,BKN,,0.08,WeatherDisplay:10.37,2013-12-13 16:16:00,
2013-12-13 16:31:00,52.0,46.7,29.99,West,271,10.0,20.0,82,0.00,BKN,,0.08,WeatherDisplay:10.37,2013-12-13 16:31:00,
2013-12-13 16:46:00,51.4,45.1,30.00,West,277,12.0,25.0,79,0.00,BKN,,0.08,WeatherDisplay:10.37,2013-12-13 16:46:00,
2013-12-13 17:01:00,51.1,44.1,30.00,West,277,12.0,20.0,77,0.00,BKN,,0.08,WeatherDisplay:10.37,2013-12-13 17:01:00,
2013-12-13 17:16:00,51.1,44.8,30.01,WNW,287,8.0,21.0,79,0.00,SCT,,0.08,WeatherDisplay:10.37,2013-12-13 17:16:00,
2013-12-13 17:31:00,51.1,45.1,30.01,WNW,283,9.0,18.0,80,0.00,SCT,,0.08,WeatherDisplay:10.37,2013-12-13 17:31:00,
2013-12-13 17:46:00,51.1,44.8,30.00,West,272,10.0,18.0,79,0.00,SCT,,0.08,WeatherDisplay:10.37,2013-12-13 17:46:00,
2013-12-13 18:01:00,51.3,45.0,30.01,West,267,13.0,23.0,79,0.00,SCT,,0.08,WeatherDisplay:10.37,2013-12-13 18:01:00,
2013-12-13 18:15:00,51.4,45.1,30.02,WNW,286,13.0,22.0,79,0.00,SCT,,0.08,WeatherDisplay:10.37,2013-12-13 18:15:00,
2013-12-13 18:30:00,51.6,44.6,30.03,West,280,14.0,24.0,77,0.00,SCT,,0.08,WeatherDisplay:10.37,2013-12-13 18:30:00,
2013-12-13 18:45:00,51.4,43.3,30.04,WNW,284,14.0,23.0,74,0.00,SCT,,0.08,WeatherDisplay:10.37,2013-12-13 18:45:00,
2013-12-13 19:00:00,50.2,42.9,30.05,WNW,303,17.0,32.0,76,0.00,SCT,,0.08,WeatherDisplay:10.37,2013-12-13 19:00:00,
2013-12-13 19:15:00,49.6,42.4,30.07,WNW,289,21.0,29.0,76,0.00,FEW,,0.08,WeatherDisplay:10.37,2013-12-13 19:15:00,
2013-12-13 19:30:00,48.0,41.2,30.07,WNW,282,13.0,23.0,77,0.00,FEW,,0.08,WeatherDisplay:10.37,2013-12-13 19:30:00,
2013-12-13 19:45:00,47.8,41.3,30.08,WNW,282,14.0,21.0,78,0.00,FEW,,0.08,WeatherDisplay:10.37,2013-12-13 19:45:00,
2013-12-13 20:00:00,48.0,41.8,30.08,West,281,14.0,21.0,79,0.00,FEW,,0.08,WeatherDisplay:10.37,2013-12-13 20:00:00,
2013-12-13 20:15:00,48.7,41.8,30.08,WNW,289,17.0,23.0,77,0.00,FEW,,0.08,WeatherDisplay:10.37,2013-12-13 20:15:00,
2013-12-13 20:30:00,49.1,41.2,30.09,WNW,283,18.0,23.0,74,0.00,FEW,,0.08,WeatherDisplay:10.37,2013-12-13 20:30:00,
2013-12-13 20:45:00,49.6,41.7,30.09,WNW,282,16.0,24.0,74,0.00,FEW,,0.08,WeatherDisplay:10.37,2013-12-13 20:45:00,
2013-12-13 21:00:00,49.6,41.7,30.09,WNW,298,20.0,29.0,74,0.00,FEW,,0.08,WeatherDisplay:10.37,2013-12-13 21:00:00,
2013-12-13 21:15:00,48.9,41.0,30.12,WNW,301,16.0,28.0,74,0.00,FEW,,0.08,WeatherDisplay:10.37,2013-12-13 21:15:00,
2013-12-13 21:30:00,48.0,41.5,30.13,NW,309,17.0,23.0,78,0.00,FEW,,0.08,WeatherDisplay:10.37,2013-12-13 21:30:00,
2013-12-13 21:45:00,48.7,41.2,30.13,WNW,296,16.0,31.0,75,0.00,FEW,,0.08,WeatherDisplay:10.37,2013-12-13 21:45:00,
2013-12-13 22:00:00,48.9,41.3,30.14,WNW,297,15.0,23.0,75,0.00,FEW,,0.08,WeatherDisplay:10.37,2013-12-13 22:00:00,
2013-12-13 22:15:00,48.9,41.3,30.14,WNW,291,15.0,25.0,75,0.00,FEW,,0.08,WeatherDisplay:10.37,2013-12-13 22:15:00,
2013-12-13 22:29:00,49.1,41.5,30.15,NW,304,15.0,24.0,75,0.00,FEW,,0.08,WeatherDisplay:10.37,2013-12-13 22:29:00,
2013-12-13 22:44:00,49.3,41.7,30.15,WNW,299,12.0,24.0,75,0.00,FEW,,0.08,WeatherDisplay:10.37,2013-12-13 22:44:00,
2013-12-13 22:59:00,49.3,41.7,30.15,WNW,300,13.0,23.0,75,0.00,FEW,,0.08,WeatherDisplay:10.37,2013-12-13 22:59:00,
2013-12-13 23:14:00,49.3,42.0,30.16,WNW,286,14.0,20.0,76,0.00,FEW,,0.08,WeatherDisplay:10.37,2013-12-13 23:14:00,
2013-12-13 23:29:00,49.3,42.0,30.17,WNW,285,7.0,18.0,76,0.00,FEW,,0.08,WeatherDisplay:10.37,2013-12-13 23:29:00,
2013-12-13 23:44:00,49.3,42.4,30.17,West,281,9.0,19.0,77,0.00,FEW,,0.08,WeatherDisplay:10.37,2013-12-13 23:44:00,
2013-12-13 23:59:00,49.3,42.7,30.17,WNW,283,8.0,17.0,78,0.00,RA,,0.00,WeatherDisplay:10.37,2013-12-13 23:59:00,